createdAt,value
2023-03-25T00:02:25.681Z,57.08
2023-03-25T00:04:53.457Z,66.28
2023-03-25T00:07:21.627Z,64.45
2023-03-25T00:09:48.849Z,64.88
2023-03-25T00:12:19.740Z,63.05
2023-03-25T00:14:54.830Z,64.40
2023-03-25T00:17:23.188Z,63.28
2023-03-25T00:19:54.977Z,59.78
2023-03-25T00:22:22.926Z,60.53
2023-03-25T00:24:50.139Z,51.75
2023-03-25T00:27:20.256Z,58.45
2023-03-25T00:29:47.571Z,51.55
2023-03-25T00:32:15.791Z,52.03
2023-03-25T00:34:47.762Z,54.83
2023-03-25T00:37:22.021Z,51.30
2023-03-25T00:39:49.534Z,53.40
2023-03-25T00:42:17.594Z,52.50
2023-03-25T00:44:44.763Z,53.80
2023-03-25T00:47:18.877Z,54.13
2023-03-25T00:49:46.582Z,53.42
2023-03-25T00:52:15.754Z,45.60
2023-03-25T00:54:43.347Z,48.42
2023-03-25T00:57:10.527Z,48.38
2023-03-25T00:59:37.883Z,48.15
2023-03-25T01:02:07.624Z,51.35
2023-03-25T01:04:35.468Z,49.40
2023-03-25T01:07:03.651Z,41.53
2023-03-25T01:09:31.371Z,48.25
2023-03-25T01:11:58.481Z,47.10
2023-03-25T01:14:27.867Z,40.25
2023-03-25T01:16:55.273Z,43.97
2023-03-25T01:19:23.712Z,48.50
2023-03-25T01:21:53.436Z,42.30
2023-03-25T01:24:23.589Z,46.58
2023-03-25T01:26:53.544Z,42.80
2023-03-25T01:29:22.617Z,34.47
2023-03-25T01:31:52.314Z,39.30
2023-03-25T01:34:19.997Z,49.10
2023-03-25T01:36:47.526Z,48.15
2023-03-25T01:39:16.941Z,48.38
2023-03-25T01:41:49.612Z,40.97
2023-03-25T01:44:20.805Z,46.47
2023-03-25T01:46:49.721Z,40.88
2023-03-25T01:49:43.094Z,44.45
2023-03-25T01:52:25.117Z,43.60
2023-03-25T01:54:53.588Z,40.63
2023-03-25T01:57:21.725Z,41.67
2023-03-25T01:59:48.894Z,39.38
2023-03-25T02:02:17.952Z,39.47
2023-03-25T02:05:04.734Z,37.40
2023-03-25T02:07:35.712Z,33.72
2023-03-25T02:10:08.118Z,47.47
2023-03-25T02:12:35.353Z,38.60
2023-03-25T02:15:03.809Z,38.05
2023-03-25T02:17:43.550Z,37.03
2023-03-25T02:20:46.112Z,40.80
2023-03-25T02:23:28.703Z,39.22
2023-03-25T02:26:08.572Z,33.78
2023-03-25T02:28:47.709Z,37.72
2023-03-25T02:31:20.238Z,38.03
2023-03-25T02:34:11.333Z,38.83
2023-03-25T02:36:45.894Z,38.42
2023-03-25T02:39:45.816Z,41.38
2023-03-25T02:42:18.644Z,51.15
2023-03-25T02:45:16.091Z,39.13
2023-03-25T02:47:47.387Z,44.03
2023-03-25T02:50:30.773Z,45.40
2023-03-25T02:53:02.347Z,41.22
2023-03-25T02:55:33.813Z,41.22
2023-03-25T02:58:02.244Z,35.65
2023-03-25T03:00:30.000Z,39.20
2023-03-25T03:03:01.939Z,38.95
2023-03-25T03:05:36.883Z,33.10
2023-03-25T03:08:06.752Z,32.80
2023-03-25T03:10:40.267Z,32.27
2023-03-25T03:13:39.489Z,33.83
2023-03-25T03:16:17.460Z,32.45
2023-03-25T03:19:09.242Z,35.20
2023-03-25T03:21:51.661Z,28.00
2023-03-25T03:24:21.651Z,29.48
2023-03-25T03:27:17.187Z,31.75
2023-03-25T03:29:48.893Z,36.35
2023-03-25T03:32:19.100Z,28.45
2023-03-25T03:34:50.209Z,32.38
2023-03-25T03:37:26.703Z,31.08
2023-03-25T03:39:59.565Z,31.27
2023-03-25T03:42:30.592Z,28.73
2023-03-25T03:45:01.549Z,32.80
2023-03-25T03:47:33.490Z,35.15
2023-03-25T03:50:03.445Z,31.50
2023-03-25T03:52:45.444Z,32.15
2023-03-25T03:55:21.288Z,30.85
2023-03-25T03:57:54.457Z,25.02
2023-03-25T04:00:36.465Z,27.30
2023-03-25T04:03:15.505Z,21.90
2023-03-25T04:05:51.996Z,25.65
2023-03-25T04:08:26.720Z,23.73
2023-03-25T04:10:59.447Z,23.83
2023-03-25T04:13:32.568Z,26.60
2023-03-25T04:16:00.540Z,23.77
2023-03-25T04:18:28.848Z,24.70
2023-03-25T04:20:56.386Z,29.40
2023-03-25T04:23:23.505Z,27.15
2023-03-25T04:25:53.776Z,27.40
2023-03-25T04:28:20.903Z,28.85
2023-03-25T04:30:55.904Z,30.88
2023-03-25T04:33:23.679Z,27.23
2023-03-25T04:35:51.794Z,29.83
2023-03-25T04:38:19.710Z,25.23
2023-03-25T04:40:47.318Z,28.20
2023-03-25T04:43:15.793Z,31.15
2023-03-25T04:45:49.842Z,28.00
2023-03-25T04:48:24.561Z,30.70
2023-03-25T04:50:51.920Z,31.30
2023-03-25T04:53:19.142Z,29.75
2023-03-25T04:55:49.768Z,28.25
2023-03-25T05:00:45.390Z,29.92
2023-03-25T05:03:12.440Z,25.75
2023-03-25T05:05:40.864Z,21.33
2023-03-25T05:08:08.212Z,28.10
2023-03-25T05:10:36.581Z,29.67
2023-03-25T05:13:07.596Z,30.00
2023-03-25T05:15:41.274Z,27.35
2023-03-25T05:18:15.670Z,28.27
2023-03-25T05:20:44.095Z,26.13
2023-03-25T05:23:18.408Z,25.83
2023-03-25T05:25:47.687Z,28.45
2023-03-25T05:28:14.997Z,28.40
2023-03-25T05:30:42.551Z,30.83
2023-03-25T05:33:11.990Z,29.98
2023-03-25T05:35:39.518Z,26.73
2023-03-25T05:38:08.374Z,28.30
2023-03-25T05:40:36.319Z,26.05
2023-03-25T05:43:03.502Z,33.72
2023-03-25T05:45:30.658Z,34.05
2023-03-25T05:47:59.548Z,36.70
2023-03-25T05:50:29.023Z,33.83
2023-03-25T05:52:58.731Z,32.13
2023-03-25T05:55:30.620Z,42.85
2023-03-25T05:57:58.895Z,38.20
2023-03-25T06:00:26.152Z,34.08
2023-03-25T06:02:53.554Z,34.70
2023-03-25T06:05:24.011Z,30.67
2023-03-25T06:07:51.730Z,39.92
2023-03-25T06:10:19.214Z,38.15
2023-03-25T06:12:47.252Z,39.58
2023-03-25T06:15:15.985Z,57.20
2023-03-25T06:17:46.869Z,61.55
2023-03-25T06:20:16.769Z,52.95
2023-03-25T06:22:45.057Z,44.17
2023-03-25T06:25:13.607Z,34.08
2023-03-25T06:27:40.784Z,33.55
2023-03-25T06:30:14.468Z,35.70
2023-03-25T06:32:41.883Z,49.40
2023-03-25T06:35:12.869Z,38.65
2023-03-25T06:37:40.770Z,48.45
2023-03-25T06:40:11.258Z,45.63
2023-03-25T06:42:38.586Z,41.50
2023-03-25T06:45:06.024Z,37.45
2023-03-25T06:47:34.525Z,36.88
2023-03-25T06:50:03.638Z,40.00
2023-03-25T06:52:30.790Z,34.88
2023-03-25T06:54:58.023Z,35.88
2023-03-25T06:57:25.192Z,41.10
2023-03-25T06:59:52.440Z,38.70
2023-03-25T07:02:19.680Z,50.95
2023-03-25T07:04:47.177Z,53.55
2023-03-25T07:07:14.644Z,51.53
2023-03-25T07:09:41.953Z,50.72
2023-03-25T07:12:12.414Z,57.40
2023-03-25T07:14:39.641Z,50.58
2023-03-25T07:17:06.885Z,56.42
2023-03-25T07:19:34.557Z,55.70
2023-03-25T07:22:01.812Z,62.10
2023-03-25T07:24:29.244Z,66.28
2023-03-25T07:26:56.720Z,63.53
2023-03-25T07:29:23.821Z,27.45
2023-03-25T07:31:51.179Z,14.93
2023-03-25T07:34:18.372Z,15.60
2023-03-25T07:36:45.620Z,12.50
2023-03-25T07:39:12.868Z,13.70
2023-03-25T07:41:40.301Z,11.35
2023-03-25T07:44:07.587Z,34.95
2023-03-25T07:46:34.891Z,18.77
2023-03-25T07:49:02.680Z,12.73
2023-03-25T07:51:30.783Z,13.20
2023-03-25T07:54:05.344Z,9.57
2023-03-25T07:56:34.045Z,9.07
2023-03-25T07:59:01.652Z,9.57
2023-03-25T08:01:29.077Z,12.52
2023-03-25T08:03:56.462Z,13.68
2023-03-25T08:06:24.220Z,7.68
2023-03-25T08:08:51.567Z,10.15
2023-03-25T08:11:18.889Z,7.70
2023-03-25T08:13:46.534Z,7.57
2023-03-25T08:16:16.370Z,24.77
2023-03-25T08:18:45.356Z,11.55
2023-03-25T08:21:13.480Z,8.45
2023-03-25T08:24:19.592Z,8.05
2023-03-25T08:26:44.931Z,15.15
2023-03-25T08:29:12.210Z,24.40
2023-03-25T08:31:40.624Z,22.98
2023-03-25T08:34:08.186Z,12.05
2023-03-25T08:36:39.614Z,13.82
2023-03-25T08:39:11.920Z,10.65
2023-03-25T08:41:39.883Z,10.13
2023-03-25T08:44:07.951Z,12.05
2023-03-25T08:46:35.696Z,9.63
2023-03-25T08:49:04.067Z,9.38
2023-03-25T08:51:32.911Z,6.70
2023-03-25T08:54:01.218Z,6.35
2023-03-25T08:56:28.957Z,7.10
2023-03-25T08:58:58.792Z,6.53
2023-03-25T09:01:27.224Z,11.32
2023-03-25T09:03:57.728Z,9.65
2023-03-25T09:06:47.948Z,6.15
2023-03-25T09:09:22.987Z,6.13
2023-03-25T09:11:50.554Z,5.47
2023-03-25T09:14:19.990Z,7.28
2023-03-25T09:16:47.158Z,6.38
2023-03-25T09:19:14.428Z,8.38
2023-03-25T09:21:41.782Z,16.27
2023-03-25T09:24:09.426Z,20.85
2023-03-25T09:26:41.018Z,7.35
2023-03-25T09:29:08.329Z,6.80
2023-03-25T09:31:35.985Z,6.32
2023-03-25T09:34:04.169Z,5.38
2023-03-25T09:36:32.386Z,5.30
2023-03-25T09:39:00.922Z,11.50
2023-03-25T09:41:47.841Z,7.95
2023-03-25T09:44:31.531Z,12.93
2023-03-25T09:46:59.624Z,5.25
2023-03-25T09:49:33.281Z,4.63
2023-03-25T09:52:02.641Z,7.43
2023-03-25T09:54:32.898Z,6.93
2023-03-25T09:57:08.800Z,6.43
2023-03-25T09:59:52.908Z,5.38
2023-03-25T10:02:52.675Z,6.28
2023-03-25T10:05:30.445Z,6.65
2023-03-25T10:08:36.033Z,6.95
2023-03-25T10:11:32.534Z,33.78
2023-03-25T10:14:03.335Z,11.20
2023-03-25T10:17:03.801Z,9.80
2023-03-25T10:20:12.088Z,9.68
2023-03-25T10:22:42.229Z,7.00
2023-03-25T10:25:31.361Z,6.28
2023-03-25T10:28:00.009Z,6.43
2023-03-25T10:30:31.978Z,5.38
2023-03-25T10:33:02.822Z,5.90
2023-03-25T10:35:39.271Z,7.63
2023-03-25T10:38:33.094Z,5.05
2023-03-25T10:41:17.690Z,9.27
2023-03-25T10:43:45.707Z,8.15
2023-03-25T10:46:49.841Z,6.07
2023-03-25T10:49:29.375Z,5.10
2023-03-25T10:52:02.935Z,4.88
2023-03-25T10:54:43.009Z,12.98
2023-03-25T10:57:11.559Z,15.85
2023-03-25T10:59:50.436Z,6.22
2023-03-25T11:02:28.473Z,6.97
2023-03-25T11:04:59.295Z,5.88
2023-03-25T11:07:38.578Z,7.85
2023-03-25T11:10:16.730Z,4.78
2023-03-25T11:12:49.208Z,24.77
2023-03-25T11:15:19.887Z,10.02
2023-03-25T11:17:48.409Z,5.72
2023-03-25T11:20:26.380Z,4.78
2023-03-25T11:22:58.574Z,5.70
2023-03-25T11:25:34.191Z,6.35
2023-03-25T11:28:10.345Z,6.53
2023-03-25T11:30:38.599Z,10.30
2023-03-25T11:33:08.339Z,4.90
2023-03-25T11:35:49.343Z,4.30
2023-03-25T11:38:21.771Z,4.38
2023-03-25T11:40:59.367Z,6.30
2023-03-25T11:43:27.540Z,5.15
2023-03-25T11:45:55.226Z,5.15
2023-03-25T11:51:15.869Z,9.23
2023-03-25T11:53:53.287Z,12.55
2023-03-25T11:56:24.207Z,22.48
2023-03-25T12:01:44.348Z,6.55
2023-03-25T12:04:25.970Z,10.60
2023-03-25T12:06:55.568Z,9.52
2023-03-25T12:09:24.330Z,6.72
2023-03-25T12:12:18.078Z,6.63
2023-03-25T12:14:53.171Z,13.23
2023-03-25T12:17:45.140Z,6.45
2023-03-25T12:20:58.409Z,8.45
2023-03-25T12:23:33.078Z,3.45
2023-03-25T12:26:33.484Z,5.72
2023-03-25T12:29:26.881Z,5.55
2023-03-25T12:32:04.836Z,4.80
2023-03-25T12:34:37.264Z,4.47
2023-03-25T12:37:40.090Z,5.03
2023-03-25T12:40:40.490Z,3.20
2023-03-25T12:43:12.284Z,6.05
2023-03-25T12:46:01.386Z,18.58
2023-03-25T12:49:06.695Z,10.07
2023-03-25T12:51:49.718Z,5.82
2023-03-25T12:54:24.343Z,8.85
2023-03-25T12:57:06.810Z,4.45
2023-03-25T13:00:08.958Z,4.38
2023-03-25T13:02:40.042Z,4.55
2023-03-25T13:05:27.510Z,4.13
2023-03-25T13:08:22.243Z,6.30
2023-03-25T13:10:56.217Z,4.90
2023-03-25T13:13:25.768Z,4.63
2023-03-25T13:16:08.738Z,3.50
2023-03-25T13:18:46.245Z,3.60
2023-03-25T13:21:21.147Z,3.53
2023-03-25T13:23:53.211Z,7.75
2023-03-25T13:26:22.639Z,5.75
2023-03-25T13:29:02.150Z,7.67
2023-03-25T13:31:35.772Z,5.57
2023-03-25T13:34:25.018Z,5.10
2023-03-25T13:37:20.575Z,3.67
2023-03-25T13:40:25.592Z,6.93
2023-03-25T13:43:11.474Z,11.30
2023-03-25T13:45:52.766Z,6.85
2023-03-25T13:48:27.667Z,6.18
2023-03-25T13:50:55.245Z,6.38
2023-03-25T13:53:30.787Z,6.18
2023-03-25T13:56:07.855Z,5.47
2023-03-25T13:58:55.085Z,7.45
2023-03-25T14:01:53.580Z,6.60
2023-03-25T14:04:58.755Z,6.47
2023-03-25T14:07:48.829Z,7.07
2023-03-25T14:10:54.428Z,6.05
2023-03-25T14:13:30.641Z,6.15
2023-03-25T14:16:17.824Z,8.45
2023-03-25T14:18:47.862Z,7.32
2023-03-25T14:21:41.774Z,8.07
2023-03-25T14:24:59.856Z,5.50
2023-03-25T14:27:36.743Z,5.78
2023-03-25T14:30:23.914Z,7.57
2023-03-25T14:32:52.554Z,13.82
2023-03-25T14:35:46.234Z,11.05
2023-03-25T14:38:32.113Z,12.57
2023-03-25T14:41:16.841Z,9.43
2023-03-25T14:43:55.786Z,10.02
2023-03-25T14:46:26.739Z,19.05
2023-03-25T14:49:12.349Z,18.80
2023-03-25T14:51:51.173Z,15.52
2023-03-25T14:54:33.623Z,24.02
2023-03-25T14:57:04.865Z,97.30
2023-03-25T15:00:08.519Z,17.80
2023-03-25T15:02:39.616Z,13.23
2023-03-25T15:05:28.764Z,8.30
2023-03-25T15:08:27.372Z,8.23
2023-03-25T15:11:52.529Z,15.10
2023-03-25T15:14:50.512Z,9.52
2023-03-25T15:17:48.020Z,12.45
2023-03-25T15:20:47.208Z,17.23
2023-03-25T15:23:39.813Z,14.15
2023-03-25T15:26:33.867Z,15.00
2023-03-25T15:29:37.396Z,12.68
2023-03-25T15:32:36.353Z,14.20
2023-03-25T15:35:34.972Z,19.30
2023-03-25T15:38:32.145Z,22.88
2023-03-25T15:40:59.574Z,20.70
2023-03-25T15:50:06.617Z,22.13
2023-03-25T15:53:00.508Z,19.05
2023-03-25T15:55:36.254Z,23.20
2023-03-25T15:58:26.959Z,21.00
2023-03-25T16:00:56.555Z,22.15
2023-03-25T16:03:26.641Z,23.55
2023-03-25T16:06:02.435Z,24.98
2023-03-25T16:08:40.328Z,26.40
2023-03-25T16:11:25.312Z,10.02
2023-03-25T16:14:18.766Z,12.20
2023-03-25T16:16:49.033Z,8.43
2023-03-25T16:19:55.440Z,11.68
2023-03-25T16:22:29.225Z,8.82
2023-03-25T16:24:59.171Z,15.15
2023-03-25T16:27:31.182Z,10.50
2023-03-25T16:30:01.504Z,10.88
2023-03-25T16:32:46.523Z,17.55
2023-03-25T16:35:25.600Z,7.47
2023-03-25T17:17:47.727Z,10.93
2023-03-25T17:23:11.378Z,8.75
2023-03-25T17:25:58.048Z,12.48
2023-03-25T17:28:44.086Z,14.70
2023-03-25T17:31:31.603Z,10.32
2023-03-25T17:34:07.920Z,8.63
2023-03-25T17:36:42.473Z,12.82
2023-03-25T17:39:32.134Z,16.33
2023-03-25T17:42:06.576Z,17.92
2023-03-25T17:44:52.223Z,15.25
2023-03-25T17:47:21.565Z,13.95
2023-03-25T17:49:56.550Z,20.98
2023-03-25T17:52:34.837Z,17.42
2023-03-25T17:55:13.412Z,18.90
2023-03-25T18:00:40.714Z,18.80
2023-03-25T18:03:20.620Z,16.08
2023-03-25T18:06:09.543Z,18.87
2023-03-25T18:08:39.792Z,17.88
2023-03-25T18:11:13.108Z,12.25
2023-03-25T18:13:56.470Z,9.90
2023-03-25T18:16:27.676Z,11.07
2023-03-25T18:18:58.230Z,12.32
2023-03-25T18:21:26.742Z,10.43
2023-03-25T18:24:29.364Z,10.52
2023-03-25T18:27:22.149Z,16.02
2023-03-25T18:30:10.430Z,14.40
2023-03-25T18:32:41.156Z,13.20
2023-03-25T18:37:38.588Z,9.93
2023-03-25T18:40:17.401Z,21.13
2023-03-25T18:42:45.737Z,24.45
2023-03-25T18:45:14.360Z,35.33
2023-03-25T18:47:43.722Z,39.58
2023-03-25T18:50:33.437Z,37.58
2023-03-25T18:53:01.088Z,33.85
2023-03-25T18:55:29.694Z,29.63
2023-03-25T18:58:10.364Z,24.23
2023-03-25T19:00:49.602Z,22.48
2023-03-25T19:03:39.141Z,22.48
2023-03-25T19:09:34.688Z,26.38
2023-03-25T19:14:55.180Z,21.90
2023-03-25T19:17:27.880Z,21.33
2023-03-25T19:20:13.933Z,28.75
2023-03-25T19:22:41.900Z,25.10
2023-03-25T19:48:08.156Z,65.85
2023-03-25T19:50:38.511Z,72.60
2023-03-25T19:53:08.956Z,85.07
2023-03-25T19:56:30.711Z,97.70
2023-03-25T20:07:08.687Z,95.93
2023-03-25T20:10:18.598Z,76.70
2023-03-25T20:12:49.315Z,69.50
2023-03-25T20:15:21.390Z,63.35
2023-03-25T20:17:49.904Z,61.35
2023-03-25T20:23:21.129Z,62.92
2023-03-25T20:25:50.985Z,56.53
2023-03-25T20:28:18.840Z,74.45
2023-03-25T20:30:49.870Z,71.95
2023-03-25T20:33:19.982Z,64.97
2023-03-25T20:35:50.287Z,60.53
2023-03-25T20:38:19.497Z,61.05
2023-03-25T20:40:49.337Z,54.85
2023-03-25T20:43:26.550Z,53.83
2023-03-25T20:45:59.392Z,57.10
2023-03-25T20:48:29.187Z,67.18
2023-03-25T20:51:09.521Z,53.00
2023-03-25T20:53:40.789Z,70.38
2023-03-25T20:56:08.561Z,81.55
2023-03-25T20:58:38.757Z,77.72
2023-03-25T21:01:17.585Z,84.35
2023-03-25T21:03:44.965Z,87.30
2023-03-25T21:08:50.927Z,81.88
2023-03-25T21:11:28.141Z,79.43
2023-03-25T21:13:56.559Z,76.85
2023-03-25T21:16:26.249Z,76.55
2023-03-25T21:19:05.428Z,81.13
2023-03-25T21:21:45.736Z,76.88
2023-03-25T21:24:31.281Z,69.75
2023-03-25T21:26:58.821Z,73.40
2023-03-25T21:29:43.099Z,80.03
2023-03-25T21:32:11.312Z,81.53
2023-03-25T21:34:41.278Z,84.45
2023-03-25T21:37:14.498Z,90.88
2023-03-25T21:39:53.992Z,92.47
2023-03-25T21:42:21.565Z,100.38
2023-03-25T21:45:03.053Z,90.97
2023-03-25T21:47:33.265Z,97.82
2023-03-25T21:50:02.562Z,98.18
2023-03-25T21:52:29.846Z,91.40
2023-03-25T21:55:00.760Z,97.55
2023-03-25T21:57:28.497Z,98.43
2023-03-25T21:59:58.330Z,115.47
2023-03-25T22:02:25.926Z,114.07
2023-03-25T22:05:05.325Z,105.93
2023-03-25T22:07:32.990Z,79.90
2023-03-25T22:10:00.486Z,148.20
2023-03-25T22:12:30.147Z,160.85
2023-03-25T22:14:57.870Z,156.50
2023-03-25T22:20:36.776Z,160.57
2023-03-25T22:23:06.774Z,151.52
2023-03-25T22:25:34.869Z,145.93
2023-03-25T22:28:02.523Z,154.82
2023-03-25T22:30:30.496Z,158.45
2023-03-25T22:32:57.908Z,123.55
2023-03-25T22:35:29.454Z,117.55
2023-03-25T22:37:57.556Z,113.57
2023-03-25T22:40:25.662Z,104.07
2023-03-25T22:42:56.233Z,112.70
2023-03-25T22:48:06.728Z,82.68
2023-03-25T22:53:19.506Z,72.65
2023-03-25T22:56:11.134Z,67.95
2023-03-25T23:01:38.773Z,55.95
2023-03-25T23:04:06.658Z,58.75
2023-03-25T23:06:35.872Z,64.68
2023-03-25T23:09:09.445Z,77.47
2023-03-25T23:11:38.348Z,72.80
2023-03-25T23:14:11.022Z,72.85
2023-03-25T23:16:45.029Z,74.03
2023-03-25T23:19:13.991Z,64.55
2023-03-25T23:21:44.912Z,67.32
2023-03-25T23:24:12.558Z,67.43
2023-03-25T23:26:42.749Z,70.00
2023-03-25T23:29:11.181Z,68.43
2023-03-25T23:31:41.745Z,71.15
2023-03-25T23:36:40.188Z,85.80
2023-03-25T23:39:10.680Z,90.55
2023-03-25T23:41:38.081Z,98.07
2023-03-25T23:44:06.351Z,87.95
2023-03-25T23:46:34.132Z,81.65
2023-03-25T23:49:04.431Z,88.63
2023-03-25T23:51:40.602Z,88.32
2023-03-25T23:54:12.822Z,77.68
2023-03-25T23:56:40.249Z,70.63
2023-03-25T23:59:07.854Z,73.43
